sensor_id;sensor_type;location;lat;lon;timestamp;P1;durP1;ratioP1;P2;durP2;ratioP2
26756;SDS011;23848;49.798;10.228;2022-08-03T00:02:15;5.68;;;2.33;;
26756;SDS011;23848;49.798;10.228;2022-08-03T00:04:43;4.00;;;2.97;;
26756;SDS011;23848;49.798;10.228;2022-08-03T00:07:12;3.72;;;2.70;;
26756;SDS011;23848;49.798;10.228;2022-08-03T00:09:42;4.32;;;2.65;;
26756;SDS011;23848;49.798;10.228;2022-08-03T00:12:10;3.75;;;2.60;;
26756;SDS011;23848;49.798;10.228;2022-08-03T00:14:39;3.67;;;2.67;;
26756;SDS011;23848;49.798;10.228;2022-08-03T00:17:07;3.78;;;2.53;;
26756;SDS011;23848;49.798;10.228;2022-08-03T00:19:36;5.75;;;2.83;;
26756;SDS011;23848;49.798;10.228;2022-08-03T00:22:04;4.95;;;3.05;;
26756;SDS011;23848;49.798;10.228;2022-08-03T00:24:32;3.47;;;2.53;;
26756;SDS011;23848;49.798;10.228;2022-08-03T00:27:03;3.30;;;2.80;;
26756;SDS011;23848;49.798;10.228;2022-08-03T00:29:31;5.60;;;2.65;;
26756;SDS011;23848;49.798;10.228;2022-08-03T00:32:19;3.70;;;2.88;;
26756;SDS011;23848;49.798;10.228;2022-08-03T00:34:50;3.97;;;2.67;;
26756;SDS011;23848;49.798;10.228;2022-08-03T00:37:24;4.95;;;2.67;;
26756;SDS011;23848;49.798;10.228;2022-08-03T00:40:07;3.80;;;2.60;;
26756;SDS011;23848;49.798;10.228;2022-08-03T00:42:46;3.85;;;3.03;;
26756;SDS011;23848;49.798;10.228;2022-08-03T00:45:16;4.60;;;2.90;;
26756;SDS011;23848;49.798;10.228;2022-08-03T00:47:44;4.35;;;2.75;;
26756;SDS011;23848;49.798;10.228;2022-08-03T00:50:13;3.72;;;2.70;;
26756;SDS011;23848;49.798;10.228;2022-08-03T00:52:42;3.92;;;2.63;;
26756;SDS011;23848;49.798;10.228;2022-08-03T00:55:11;4.40;;;3.00;;
26756;SDS011;23848;49.798;10.228;2022-08-03T00:57:39;4.95;;;3.08;;
26756;SDS011;23848;49.798;10.228;2022-08-03T01:00:11;4.82;;;3.03;;
26756;SDS011;23848;49.798;10.228;2022-08-03T01:02:40;4.00;;;3.20;;
26756;SDS011;23848;49.798;10.228;2022-08-03T01:05:09;3.20;;;2.60;;
26756;SDS011;23848;49.798;10.228;2022-08-03T01:07:43;5.05;;;2.70;;
26756;SDS011;23848;49.798;10.228;2022-08-03T01:10:16;4.45;;;3.15;;
26756;SDS011;23848;49.798;10.228;2022-08-03T01:12:47;4.25;;;3.03;;
26756;SDS011;23848;49.798;10.228;2022-08-03T01:15:22;6.20;;;3.28;;
26756;SDS011;23848;49.798;10.228;2022-08-03T01:17:53;4.40;;;3.30;;
26756;SDS011;23848;49.798;10.228;2022-08-03T01:20:23;5.32;;;2.95;;
26756;SDS011;23848;49.798;10.228;2022-08-03T01:31:28;5.00;;;3.40;;
26756;SDS011;23848;49.798;10.228;2022-08-03T01:34:19;4.65;;;3.47;;
26756;SDS011;23848;49.798;10.228;2022-08-03T01:36:50;5.20;;;3.13;;
26756;SDS011;23848;49.798;10.228;2022-08-03T01:39:19;3.67;;;2.90;;
26756;SDS011;23848;49.798;10.228;2022-08-03T01:41:48;4.85;;;3.13;;
26756;SDS011;23848;49.798;10.228;2022-08-03T01:44:18;3.55;;;2.60;;
26756;SDS011;23848;49.798;10.228;2022-08-03T01:46:57;3.95;;;3.00;;
26756;SDS011;23848;49.798;10.228;2022-08-03T01:49:26;5.00;;;3.63;;
26756;SDS011;23848;49.798;10.228;2022-08-03T01:51:55;4.82;;;2.80;;
26756;SDS011;23848;49.798;10.228;2022-08-03T01:54:31;3.50;;;2.97;;
26756;SDS011;23848;49.798;10.228;2022-08-03T01:57:00;4.45;;;3.10;;
26756;SDS011;23848;49.798;10.228;2022-08-03T01:59:29;4.53;;;3.53;;
26756;SDS011;23848;49.798;10.228;2022-08-03T02:02:00;3.58;;;3.15;;
26756;SDS011;23848;49.798;10.228;2022-08-03T02:04:50;4.40;;;3.15;;
26756;SDS011;23848;49.798;10.228;2022-08-03T02:07:20;5.70;;;3.10;;
26756;SDS011;23848;49.798;10.228;2022-08-03T02:09:49;3.67;;;2.65;;
26756;SDS011;23848;49.798;10.228;2022-08-03T02:12:18;4.85;;;3.38;;
26756;SDS011;23848;49.798;10.228;2022-08-03T02:14:48;5.95;;;3.40;;
26756;SDS011;23848;49.798;10.228;2022-08-03T02:17:18;5.47;;;3.70;;
26756;SDS011;23848;49.798;10.228;2022-08-03T02:20:05;5.43;;;3.30;;
26756;SDS011;23848;49.798;10.228;2022-08-03T02:22:34;4.95;;;3.20;;
26756;SDS011;23848;49.798;10.228;2022-08-03T02:25:03;3.55;;;2.65;;
26756;SDS011;23848;49.798;10.228;2022-08-03T02:27:31;4.45;;;3.15;;
26756;SDS011;23848;49.798;10.228;2022-08-03T02:30:08;3.95;;;3.50;;
26756;SDS011;23848;49.798;10.228;2022-08-03T02:32:39;5.30;;;3.30;;
26756;SDS011;23848;49.798;10.228;2022-08-03T02:35:10;5.82;;;3.63;;
26756;SDS011;23848;49.798;10.228;2022-08-03T02:37:41;4.57;;;3.10;;
26756;SDS011;23848;49.798;10.228;2022-08-03T02:40:15;4.93;;;3.30;;
26756;SDS011;23848;49.798;10.228;2022-08-03T02:42:45;4.53;;;3.53;;
26756;SDS011;23848;49.798;10.228;2022-08-03T02:45:14;4.40;;;3.47;;
26756;SDS011;23848;49.798;10.228;2022-08-03T02:47:46;3.92;;;3.28;;
26756;SDS011;23848;49.798;10.228;2022-08-03T02:50:20;4.00;;;3.30;;
26756;SDS011;23848;49.798;10.228;2022-08-03T02:52:50;4.80;;;3.75;;
26756;SDS011;23848;49.798;10.228;2022-08-03T02:55:19;4.22;;;3.38;;
26756;SDS011;23848;49.798;10.228;2022-08-03T02:57:47;4.90;;;3.40;;
26756;SDS011;23848;49.798;10.228;2022-08-03T03:00:17;4.78;;;4.00;;
26756;SDS011;23848;49.798;10.228;2022-08-03T03:02:56;4.22;;;3.38;;
26756;SDS011;23848;49.798;10.228;2022-08-03T03:05:25;3.97;;;3.58;;
26756;SDS011;23848;49.798;10.228;2022-08-03T03:08:15;4.47;;;3.58;;
26756;SDS011;23848;49.798;10.228;2022-08-03T03:10:51;4.93;;;3.10;;
26756;SDS011;23848;49.798;10.228;2022-08-03T03:13:21;4.45;;;3.10;;
26756;SDS011;23848;49.798;10.228;2022-08-03T03:15:50;3.55;;;2.80;;
26756;SDS011;23848;49.798;10.228;2022-08-03T03:18:20;4.13;;;3.28;;
26756;SDS011;23848;49.798;10.228;2022-08-03T03:20:49;3.70;;;3.25;;
26756;SDS011;23848;49.798;10.228;2022-08-03T03:23:19;3.95;;;3.28;;
26756;SDS011;23848;49.798;10.228;2022-08-03T03:25:48;4.47;;;3.35;;
26756;SDS011;23848;49.798;10.228;2022-08-03T03:28:17;5.28;;;3.13;;
26756;SDS011;23848;49.798;10.228;2022-08-03T03:30:46;3.80;;;3.20;;
26756;SDS011;23848;49.798;10.228;2022-08-03T03:33:18;5.18;;;3.45;;
26756;SDS011;23848;49.798;10.228;2022-08-03T03:35:48;4.15;;;3.13;;
26756;SDS011;23848;49.798;10.228;2022-08-03T03:38:18;5.55;;;3.55;;
26756;SDS011;23848;49.798;10.228;2022-08-03T03:40:46;3.85;;;3.20;;
26756;SDS011;23848;49.798;10.228;2022-08-03T03:43:15;6.13;;;3.65;;
26756;SDS011;23848;49.798;10.228;2022-08-03T03:45:44;6.70;;;4.20;;
26756;SDS011;23848;49.798;10.228;2022-08-03T03:48:14;4.43;;;3.40;;
26756;SDS011;23848;49.798;10.228;2022-08-03T03:50:43;4.40;;;3.40;;
26756;SDS011;23848;49.798;10.228;2022-08-03T03:53:12;4.70;;;3.28;;
26756;SDS011;23848;49.798;10.228;2022-08-03T03:55:41;4.95;;;3.40;;
26756;SDS011;23848;49.798;10.228;2022-08-03T03:58:28;4.97;;;3.38;;
26756;SDS011;23848;49.798;10.228;2022-08-03T04:00:57;4.05;;;3.53;;
26756;SDS011;23848;49.798;10.228;2022-08-03T04:03:25;4.60;;;3.38;;
26756;SDS011;23848;49.798;10.228;2022-08-03T04:05:54;4.20;;;3.47;;
26756;SDS011;23848;49.798;10.228;2022-08-03T04:08:41;4.63;;;3.50;;
26756;SDS011;23848;49.798;10.228;2022-08-03T04:11:40;4.43;;;3.10;;
26756;SDS011;23848;49.798;10.228;2022-08-03T04:14:11;4.97;;;3.38;;
26756;SDS011;23848;49.798;10.228;2022-08-03T04:16:40;5.22;;;3.13;;
26756;SDS011;23848;49.798;10.228;2022-08-03T04:19:10;4.88;;;3.63;;
26756;SDS011;23848;49.798;10.228;2022-08-03T04:21:46;5.45;;;3.72;;
26756;SDS011;23848;49.798;10.228;2022-08-03T04:24:16;4.50;;;3.38;;
26756;SDS011;23848;49.798;10.228;2022-08-03T04:26:51;4.82;;;3.97;;
26756;SDS011;23848;49.798;10.228;2022-08-03T04:29:20;6.10;;;4.40;;
26756;SDS011;23848;49.798;10.228;2022-08-03T04:31:49;6.90;;;4.68;;
26756;SDS011;23848;49.798;10.228;2022-08-03T04:34:18;6.47;;;4.68;;
26756;SDS011;23848;49.798;10.228;2022-08-03T04:36:47;8.38;;;5.20;;
26756;SDS011;23848;49.798;10.228;2022-08-03T04:39:18;5.35;;;4.13;;
26756;SDS011;23848;49.798;10.228;2022-08-03T04:41:51;7.00;;;4.10;;
26756;SDS011;23848;49.798;10.228;2022-08-03T04:44:34;5.45;;;4.00;;
26756;SDS011;23848;49.798;10.228;2022-08-03T04:47:03;5.40;;;3.78;;
26756;SDS011;23848;49.798;10.228;2022-08-03T04:49:32;5.32;;;4.10;;
26756;SDS011;23848;49.798;10.228;2022-08-03T04:52:02;5.72;;;3.75;;
26756;SDS011;23848;49.798;10.228;2022-08-03T04:54:36;7.07;;;4.00;;
26756;SDS011;23848;49.798;10.228;2022-08-03T04:57:06;4.30;;;3.45;;
26756;SDS011;23848;49.798;10.228;2022-08-03T04:59:36;5.57;;;3.80;;
26756;SDS011;23848;49.798;10.228;2022-08-03T05:02:06;4.90;;;4.00;;
26756;SDS011;23848;49.798;10.228;2022-08-03T05:04:35;4.68;;;4.00;;
26756;SDS011;23848;49.798;10.228;2022-08-03T05:07:06;5.32;;;4.10;;
26756;SDS011;23848;49.798;10.228;2022-08-03T05:09:39;5.30;;;4.03;;
26756;SDS011;23848;49.798;10.228;2022-08-03T05:12:22;6.03;;;4.22;;
26756;SDS011;23848;49.798;10.228;2022-08-03T05:14:57;4.93;;;4.00;;
26756;SDS011;23848;49.798;10.228;2022-08-03T05:17:25;6.43;;;3.65;;
26756;SDS011;23848;49.798;10.228;2022-08-03T05:19:54;4.90;;;4.20;;
26756;SDS011;23848;49.798;10.228;2022-08-03T05:22:23;5.90;;;4.63;;
26756;SDS011;23848;49.798;10.228;2022-08-03T05:24:52;5.13;;;4.00;;
26756;SDS011;23848;49.798;10.228;2022-08-03T05:27:23;6.30;;;4.25;;
26756;SDS011;23848;49.798;10.228;2022-08-03T05:29:54;5.88;;;4.57;;
26756;SDS011;23848;49.798;10.228;2022-08-03T05:32:43;5.53;;;4.32;;
26756;SDS011;23848;49.798;10.228;2022-08-03T05:35:11;5.35;;;4.30;;
26756;SDS011;23848;49.798;10.228;2022-08-03T05:38:02;6.18;;;5.03;;
26756;SDS011;23848;49.798;10.228;2022-08-03T05:40:35;6.05;;;4.57;;
26756;SDS011;23848;49.798;10.228;2022-08-03T05:43:21;7.07;;;5.10;;
26756;SDS011;23848;49.798;10.228;2022-08-03T05:45:50;5.03;;;4.10;;
26756;SDS011;23848;49.798;10.228;2022-08-03T05:48:38;6.13;;;4.47;;
26756;SDS011;23848;49.798;10.228;2022-08-03T05:51:08;4.85;;;4.13;;
26756;SDS011;23848;49.798;10.228;2022-08-03T05:53:39;5.90;;;4.53;;
26756;SDS011;23848;49.798;10.228;2022-08-03T05:56:09;4.93;;;4.25;;
26756;SDS011;23848;49.798;10.228;2022-08-03T05:58:41;7.70;;;4.53;;
26756;SDS011;23848;49.798;10.228;2022-08-03T06:01:09;5.57;;;4.55;;
26756;SDS011;23848;49.798;10.228;2022-08-03T06:03:40;5.25;;;4.30;;
26756;SDS011;23848;49.798;10.228;2022-08-03T06:06:12;6.40;;;4.35;;
26756;SDS011;23848;49.798;10.228;2022-08-03T06:08:40;5.65;;;4.45;;
26756;SDS011;23848;49.798;10.228;2022-08-03T06:11:13;5.30;;;4.47;;
26756;SDS011;23848;49.798;10.228;2022-08-03T06:13:41;4.68;;;4.15;;
26756;SDS011;23848;49.798;10.228;2022-08-03T06:16:13;5.05;;;3.67;;
26756;SDS011;23848;49.798;10.228;2022-08-03T06:18:43;5.53;;;4.38;;
26756;SDS011;23848;49.798;10.228;2022-08-03T06:21:11;4.95;;;4.10;;
26756;SDS011;23848;49.798;10.228;2022-08-03T06:23:43;5.63;;;4.55;;
26756;SDS011;23848;49.798;10.228;2022-08-03T06:26:22;5.63;;;4.25;;
26756;SDS011;23848;49.798;10.228;2022-08-03T06:28:52;6.45;;;3.92;;
26756;SDS011;23848;49.798;10.228;2022-08-03T06:31:21;7.00;;;4.20;;
26756;SDS011;23848;49.798;10.228;2022-08-03T06:33:58;5.13;;;4.18;;
26756;SDS011;23848;49.798;10.228;2022-08-03T06:36:47;5.53;;;4.47;;
26756;SDS011;23848;49.798;10.228;2022-08-03T06:39:17;5.15;;;3.90;;
26756;SDS011;23848;49.798;10.228;2022-08-03T06:41:50;6.32;;;4.70;;
26756;SDS011;23848;49.798;10.228;2022-08-03T06:44:19;7.07;;;4.50;;
26756;SDS011;23848;49.798;10.228;2022-08-03T06:46:47;6.72;;;3.97;;
26756;SDS011;23848;49.798;10.228;2022-08-03T06:49:16;6.68;;;4.38;;
26756;SDS011;23848;49.798;10.228;2022-08-03T06:51:45;6.78;;;4.57;;
26756;SDS011;23848;49.798;10.228;2022-08-03T06:54:32;6.30;;;4.50;;
26756;SDS011;23848;49.798;10.228;2022-08-03T06:57:02;7.25;;;4.47;;
26756;SDS011;23848;49.798;10.228;2022-08-03T06:59:31;8.00;;;4.18;;
26756;SDS011;23848;49.798;10.228;2022-08-03T07:02:19;5.35;;;4.10;;
26756;SDS011;23848;49.798;10.228;2022-08-03T07:04:48;4.97;;;3.60;;
26756;SDS011;23848;49.798;10.228;2022-08-03T07:07:17;5.18;;;3.53;;
26756;SDS011;23848;49.798;10.228;2022-08-03T07:09:45;6.68;;;4.10;;
26756;SDS011;23848;49.798;10.228;2022-08-03T07:12:27;3.95;;;3.40;;
26756;SDS011;23848;49.798;10.228;2022-08-03T07:14:56;4.78;;;2.88;;
26756;SDS011;23848;49.798;10.228;2022-08-03T07:17:28;6.70;;;3.50;;
26756;SDS011;23848;49.798;10.228;2022-08-03T07:19:57;4.78;;;3.53;;
26756;SDS011;23848;49.798;10.228;2022-08-03T07:22:25;5.90;;;3.20;;
26756;SDS011;23848;49.798;10.228;2022-08-03T07:24:54;4.13;;;3.40;;
26756;SDS011;23848;49.798;10.228;2022-08-03T07:27:22;5.10;;;3.20;;
26756;SDS011;23848;49.798;10.228;2022-08-03T07:29:55;3.88;;;2.92;;
26756;SDS011;23848;49.798;10.228;2022-08-03T07:32:24;3.67;;;3.13;;
26756;SDS011;23848;49.798;10.228;2022-08-03T07:34:53;5.07;;;3.35;;
26756;SDS011;23848;49.798;10.228;2022-08-03T07:37:26;4.80;;;2.90;;
26756;SDS011;23848;49.798;10.228;2022-08-03T07:39:55;5.53;;;3.38;;
26756;SDS011;23848;49.798;10.228;2022-08-03T07:42:23;3.67;;;3.03;;
26756;SDS011;23848;49.798;10.228;2022-08-03T07:44:52;3.45;;;2.88;;
26756;SDS011;23848;49.798;10.228;2022-08-03T07:47:22;6.22;;;2.90;;
26756;SDS011;23848;49.798;10.228;2022-08-03T07:50:01;3.55;;;2.63;;
26756;SDS011;23848;49.798;10.228;2022-08-03T07:52:29;3.72;;;2.85;;
26756;SDS011;23848;49.798;10.228;2022-08-03T07:55:20;3.67;;;2.90;;
26756;SDS011;23848;49.798;10.228;2022-08-03T07:57:57;4.68;;;3.03;;
26756;SDS011;23848;49.798;10.228;2022-08-03T08:00:26;3.78;;;2.85;;
26756;SDS011;23848;49.798;10.228;2022-08-03T08:02:56;3.30;;;2.53;;
26756;SDS011;23848;49.798;10.228;2022-08-03T08:05:24;4.30;;;2.63;;
26756;SDS011;23848;49.798;10.228;2022-08-03T08:07:53;6.00;;;2.67;;
26756;SDS011;23848;49.798;10.228;2022-08-03T08:10:23;4.55;;;2.70;;
26756;SDS011;23848;49.798;10.228;2022-08-03T08:12:52;3.72;;;2.70;;
26756;SDS011;23848;49.798;10.228;2022-08-03T08:15:20;4.30;;;2.65;;
26756;SDS011;23848;49.798;10.228;2022-08-03T08:17:49;3.53;;;2.60;;
26756;SDS011;23848;49.798;10.228;2022-08-03T08:20:20;6.63;;;2.85;;
26756;SDS011;23848;49.798;10.228;2022-08-03T08:22:56;5.57;;;2.50;;
26756;SDS011;23848;49.798;10.228;2022-08-03T08:25:27;3.90;;;2.53;;
26756;SDS011;23848;49.798;10.228;2022-08-03T08:27:56;4.05;;;2.45;;
26756;SDS011;23848;49.798;10.228;2022-08-03T08:30:47;3.90;;;2.33;;
26756;SDS011;23848;49.798;10.228;2022-08-03T08:33:15;3.53;;;2.67;;
26756;SDS011;23848;49.798;10.228;2022-08-03T08:35:51;3.28;;;2.33;;
26756;SDS011;23848;49.798;10.228;2022-08-03T08:38:19;2.97;;;2.00;;
26756;SDS011;23848;49.798;10.228;2022-08-03T08:40:48;3.05;;;2.17;;
26756;SDS011;23848;49.798;10.228;2022-08-03T08:43:16;3.50;;;2.45;;
26756;SDS011;23848;49.798;10.228;2022-08-03T08:45:45;3.65;;;2.45;;
26756;SDS011;23848;49.798;10.228;2022-08-03T08:48:14;2.72;;;2.08;;
26756;SDS011;23848;49.798;10.228;2022-08-03T08:50:43;2.58;;;1.95;;
26756;SDS011;23848;49.798;10.228;2022-08-03T08:53:13;3.15;;;2.35;;
26756;SDS011;23848;49.798;10.228;2022-08-03T08:55:46;2.85;;;1.95;;
26756;SDS011;23848;49.798;10.228;2022-08-03T08:58:25;2.30;;;1.73;;
26756;SDS011;23848;49.798;10.228;2022-08-03T09:00:55;2.70;;;2.05;;
26756;SDS011;23848;49.798;10.228;2022-08-03T09:03:24;2.30;;;1.92;;
26756;SDS011;23848;49.798;10.228;2022-08-03T09:05:56;3.70;;;1.90;;
26756;SDS011;23848;49.798;10.228;2022-08-03T09:08:25;2.75;;;2.00;;
26756;SDS011;23848;49.798;10.228;2022-08-03T09:10:54;3.03;;;2.10;;
26756;SDS011;23848;49.798;10.228;2022-08-03T09:13:22;2.85;;;1.92;;
26756;SDS011;23848;49.798;10.228;2022-08-03T09:18:34;3.33;;;2.10;;
26756;SDS011;23848;49.798;10.228;2022-08-03T09:21:11;3.95;;;2.30;;
26756;SDS011;23848;49.798;10.228;2022-08-03T09:23:58;2.80;;;1.95;;
26756;SDS011;23848;49.798;10.228;2022-08-03T09:26:32;4.53;;;2.15;;
26756;SDS011;23848;49.798;10.228;2022-08-03T09:29:01;3.47;;;2.20;;
26756;SDS011;23848;49.798;10.228;2022-08-03T09:31:38;2.70;;;2.00;;
26756;SDS011;23848;49.798;10.228;2022-08-03T09:34:09;3.58;;;2.20;;
26756;SDS011;23848;49.798;10.228;2022-08-03T09:36:39;2.67;;;1.90;;
26756;SDS011;23848;49.798;10.228;2022-08-03T09:39:10;3.10;;;1.88;;
26756;SDS011;23848;49.798;10.228;2022-08-03T09:41:39;5.50;;;2.00;;
26756;SDS011;23848;49.798;10.228;2022-08-03T09:44:07;2.78;;;2.03;;
26756;SDS011;23848;49.798;10.228;2022-08-03T09:46:51;4.25;;;2.03;;
26756;SDS011;23848;49.798;10.228;2022-08-03T09:49:19;2.70;;;1.73;;
26756;SDS011;23848;49.798;10.228;2022-08-03T09:51:48;3.55;;;1.85;;
26756;SDS011;23848;49.798;10.228;2022-08-03T09:54:38;3.17;;;2.10;;
26756;SDS011;23848;49.798;10.228;2022-08-03T09:57:06;3.13;;;2.00;;
26756;SDS011;23848;49.798;10.228;2022-08-03T09:59:34;2.75;;;1.85;;
26756;SDS011;23848;49.798;10.228;2022-08-03T10:02:06;2.63;;;1.83;;
26756;SDS011;23848;49.798;10.228;2022-08-03T10:04:47;3.28;;;2.10;;
26756;SDS011;23848;49.798;10.228;2022-08-03T10:07:18;3.05;;;1.92;;
26756;SDS011;23848;49.798;10.228;2022-08-03T10:09:54;2.47;;;1.80;;
26756;SDS011;23848;49.798;10.228;2022-08-03T10:12:43;2.78;;;1.90;;
26756;SDS011;23848;49.798;10.228;2022-08-03T10:15:14;3.15;;;1.85;;
26756;SDS011;23848;49.798;10.228;2022-08-03T10:18:03;3.95;;;1.70;;
26756;SDS011;23848;49.798;10.228;2022-08-03T10:20:31;2.88;;;1.70;;
26756;SDS011;23848;49.798;10.228;2022-08-03T10:23:03;2.67;;;1.80;;
26756;SDS011;23848;49.798;10.228;2022-08-03T10:25:34;2.38;;;1.60;;
26756;SDS011;23848;49.798;10.228;2022-08-03T10:28:05;2.90;;;1.88;;
26756;SDS011;23848;49.798;10.228;2022-08-03T10:30:36;2.83;;;1.65;;
26756;SDS011;23848;49.798;10.228;2022-08-03T10:33:07;3.65;;;1.70;;
26756;SDS011;23848;49.798;10.228;2022-08-03T10:35:56;2.95;;;1.88;;
26756;SDS011;23848;49.798;10.228;2022-08-03T10:38:28;3.65;;;2.53;;
26756;SDS011;23848;49.798;10.228;2022-08-03T10:40:58;3.28;;;1.85;;
26756;SDS011;23848;49.798;10.228;2022-08-03T10:43:27;2.85;;;1.75;;
26756;SDS011;23848;49.798;10.228;2022-08-03T10:45:59;3.45;;;2.10;;
26756;SDS011;23848;49.798;10.228;2022-08-03T10:48:28;3.00;;;2.00;;
26756;SDS011;23848;49.798;10.228;2022-08-03T10:50:57;3.65;;;2.00;;
26756;SDS011;23848;49.798;10.228;2022-08-03T10:53:35;2.55;;;1.60;;
26756;SDS011;23848;49.798;10.228;2022-08-03T10:56:05;2.90;;;1.73;;
26756;SDS011;23848;49.798;10.228;2022-08-03T10:59:15;2.80;;;1.75;;
26756;SDS011;23848;49.798;10.228;2022-08-03T11:01:53;4.05;;;1.77;;
26756;SDS011;23848;49.798;10.228;2022-08-03T11:04:24;2.58;;;1.67;;
26756;SDS011;23848;49.798;10.228;2022-08-03T11:09:39;3.25;;;1.95;;
26756;SDS011;23848;49.798;10.228;2022-08-03T11:12:19;2.78;;;1.80;;
26756;SDS011;23848;49.798;10.228;2022-08-03T11:14:57;2.67;;;1.90;;
26756;SDS011;23848;49.798;10.228;2022-08-03T11:17:26;3.03;;;1.95;;
26756;SDS011;23848;49.798;10.228;2022-08-03T11:19:55;2.92;;;2.15;;
26756;SDS011;23848;49.798;10.228;2022-08-03T11:22:24;4.22;;;1.90;;
26756;SDS011;23848;49.798;10.228;2022-08-03T11:25:00;3.40;;;2.28;;
26756;SDS011;23848;49.798;10.228;2022-08-03T11:27:31;4.78;;;1.58;;
26756;SDS011;23848;49.798;10.228;2022-08-03T11:30:01;2.60;;;1.83;;
26756;SDS011;23848;49.798;10.228;2022-08-03T11:35:18;2.80;;;1.80;;
26756;SDS011;23848;49.798;10.228;2022-08-03T11:38:06;2.55;;;2.17;;
26756;SDS011;23848;49.798;10.228;2022-08-03T11:40:38;3.63;;;1.60;;
26756;SDS011;23848;49.798;10.228;2022-08-03T11:46:10;3.08;;;1.55;;
26756;SDS011;23848;49.798;10.228;2022-08-03T11:48:59;2.53;;;1.55;;
26756;SDS011;23848;49.798;10.228;2022-08-03T11:51:37;3.50;;;1.90;;
26756;SDS011;23848;49.798;10.228;2022-08-03T11:54:08;2.20;;;1.42;;
26756;SDS011;23848;49.798;10.228;2022-08-03T11:56:43;3.72;;;1.42;;
26756;SDS011;23848;49.798;10.228;2022-08-03T11:59:16;1.90;;;1.33;;
26756;SDS011;23848;49.798;10.228;2022-08-03T12:01:48;1.98;;;1.33;;
26756;SDS011;23848;49.798;10.228;2022-08-03T12:04:18;4.25;;;1.58;;
26756;SDS011;23848;49.798;10.228;2022-08-03T12:06:57;2.45;;;1.63;;
26756;SDS011;23848;49.798;10.228;2022-08-03T12:09:28;2.10;;;1.48;;
26756;SDS011;23848;49.798;10.228;2022-08-03T12:11:59;1.95;;;1.42;;
26756;SDS011;23848;49.798;10.228;2022-08-03T12:14:31;4.07;;;1.67;;
26756;SDS011;23848;49.798;10.228;2022-08-03T12:17:17;2.70;;;1.52;;
26756;SDS011;23848;49.798;10.228;2022-08-03T12:19:56;3.80;;;1.92;;
26756;SDS011;23848;49.798;10.228;2022-08-03T12:22:30;2.67;;;1.63;;
26756;SDS011;23848;49.798;10.228;2022-08-03T12:25:01;2.63;;;1.70;;
26756;SDS011;23848;49.798;10.228;2022-08-03T12:27:29;2.80;;;1.88;;
26756;SDS011;23848;49.798;10.228;2022-08-03T12:30:02;4.60;;;1.42;;
26756;SDS011;23848;49.798;10.228;2022-08-03T12:32:31;2.95;;;1.60;;
26756;SDS011;23848;49.798;10.228;2022-08-03T12:35:02;3.35;;;1.50;;
26756;SDS011;23848;49.798;10.228;2022-08-03T12:37:31;2.40;;;1.60;;
26756;SDS011;23848;49.798;10.228;2022-08-03T12:40:00;3.22;;;1.80;;
26756;SDS011;23848;49.798;10.228;2022-08-03T12:42:39;2.65;;;1.67;;
26756;SDS011;23848;49.798;10.228;2022-08-03T12:45:22;2.20;;;1.30;;
26756;SDS011;23848;49.798;10.228;2022-08-03T12:47:53;4.60;;;1.42;;
26756;SDS011;23848;49.798;10.228;2022-08-03T12:50:25;2.60;;;1.67;;
26756;SDS011;23848;49.798;10.228;2022-08-03T12:52:56;2.35;;;1.42;;
26756;SDS011;23848;49.798;10.228;2022-08-03T12:55:28;2.20;;;1.45;;
26756;SDS011;23848;49.798;10.228;2022-08-03T12:58:32;2.20;;;1.35;;
26756;SDS011;23848;49.798;10.228;2022-08-03T13:01:03;2.28;;;1.60;;
26756;SDS011;23848;49.798;10.228;2022-08-03T13:03:39;2.97;;;1.52;;
26756;SDS011;23848;49.798;10.228;2022-08-03T13:06:18;2.53;;;1.70;;
26756;SDS011;23848;49.798;10.228;2022-08-03T13:08:49;2.50;;;1.50;;
26756;SDS011;23848;49.798;10.228;2022-08-03T13:11:31;3.17;;;1.48;;
26756;SDS011;23848;49.798;10.228;2022-08-03T13:14:24;2.65;;;1.52;;
26756;SDS011;23848;49.798;10.228;2022-08-03T13:16:56;2.40;;;1.55;;
26756;SDS011;23848;49.798;10.228;2022-08-03T13:19:24;2.50;;;1.55;;
26756;SDS011;23848;49.798;10.228;2022-08-03T13:21:58;2.22;;;1.50;;
26756;SDS011;23848;49.798;10.228;2022-08-03T13:24:29;2.25;;;1.48;;
26756;SDS011;23848;49.798;10.228;2022-08-03T13:26:58;2.13;;;1.48;;
26756;SDS011;23848;49.798;10.228;2022-08-03T13:29:51;2.70;;;1.60;;
26756;SDS011;23848;49.798;10.228;2022-08-03T13:32:21;2.25;;;1.50;;
26756;SDS011;23848;49.798;10.228;2022-08-03T13:34:50;2.22;;;1.27;;
26756;SDS011;23848;49.798;10.228;2022-08-03T13:37:20;2.50;;;1.40;;
26756;SDS011;23848;49.798;10.228;2022-08-03T13:39:52;1.98;;;1.40;;
26756;SDS011;23848;49.798;10.228;2022-08-03T13:42:25;2.22;;;1.42;;
26756;SDS011;23848;49.798;10.228;2022-08-03T13:44:57;2.45;;;1.80;;
26756;SDS011;23848;49.798;10.228;2022-08-03T13:47:29;2.17;;;1.40;;
26756;SDS011;23848;49.798;10.228;2022-08-03T13:52:32;2.38;;;1.20;;
26756;SDS011;23848;49.798;10.228;2022-08-03T13:55:01;2.83;;;1.50;;
26756;SDS011;23848;49.798;10.228;2022-08-03T13:57:32;1.77;;;1.10;;
26756;SDS011;23848;49.798;10.228;2022-08-03T14:00:21;2.53;;;1.60;;
26756;SDS011;23848;49.798;10.228;2022-08-03T14:03:00;3.47;;;1.52;;
26756;SDS011;23848;49.798;10.228;2022-08-03T14:05:39;2.78;;;1.65;;
26756;SDS011;23848;49.798;10.228;2022-08-03T14:08:10;3.15;;;1.55;;
26756;SDS011;23848;49.798;10.228;2022-08-03T14:10:43;2.28;;;1.38;;
26756;SDS011;23848;49.798;10.228;2022-08-03T14:13:14;3.28;;;1.20;;
26756;SDS011;23848;49.798;10.228;2022-08-03T14:15:46;2.17;;;1.55;;
26756;SDS011;23848;49.798;10.228;2022-08-03T14:18:19;1.70;;;1.17;;
26756;SDS011;23848;49.798;10.228;2022-08-03T14:20:58;2.97;;;1.20;;
26756;SDS011;23848;49.798;10.228;2022-08-03T14:23:31;2.58;;;1.33;;
26756;SDS011;23848;49.798;10.228;2022-08-03T14:26:05;3.20;;;1.67;;
26756;SDS011;23848;49.798;10.228;2022-08-03T14:28:36;2.10;;;1.50;;
26756;SDS011;23848;49.798;10.228;2022-08-03T14:31:10;2.03;;;1.33;;
26756;SDS011;23848;49.798;10.228;2022-08-03T14:34:06;2.20;;;1.20;;
26756;SDS011;23848;49.798;10.228;2022-08-03T14:36:37;2.25;;;1.40;;
26756;SDS011;23848;49.798;10.228;2022-08-03T14:39:08;2.22;;;1.38;;
26756;SDS011;23848;49.798;10.228;2022-08-03T14:41:37;2.03;;;1.48;;
26756;SDS011;23848;49.798;10.228;2022-08-03T14:44:05;2.85;;;1.30;;
26756;SDS011;23848;49.798;10.228;2022-08-03T14:46:36;2.70;;;1.52;;
26756;SDS011;23848;49.798;10.228;2022-08-03T14:49:04;1.90;;;1.33;;
26756;SDS011;23848;49.798;10.228;2022-08-03T14:51:58;2.90;;;1.20;;
26756;SDS011;23848;49.798;10.228;2022-08-03T14:54:30;2.00;;;1.33;;
26756;SDS011;23848;49.798;10.228;2022-08-03T14:56:58;2.67;;;1.70;;
26756;SDS011;23848;49.798;10.228;2022-08-03T14:59:29;2.35;;;1.55;;
26756;SDS011;23848;49.798;10.228;2022-08-03T15:02:22;1.92;;;1.17;;
26756;SDS011;23848;49.798;10.228;2022-08-03T15:04:51;2.67;;;1.50;;
26756;SDS011;23848;49.798;10.228;2022-08-03T15:07:28;2.92;;;1.40;;
26756;SDS011;23848;49.798;10.228;2022-08-03T15:09:59;2.35;;;1.50;;
26756;SDS011;23848;49.798;10.228;2022-08-03T15:12:27;1.90;;;1.20;;
26756;SDS011;23848;49.798;10.228;2022-08-03T15:14:57;2.40;;;1.50;;
26756;SDS011;23848;49.798;10.228;2022-08-03T15:17:28;2.17;;;1.30;;
26756;SDS011;23848;49.798;10.228;2022-08-03T15:19:58;2.08;;;1.30;;
26756;SDS011;23848;49.798;10.228;2022-08-03T15:22:50;2.63;;;1.25;;
26756;SDS011;23848;49.798;10.228;2022-08-03T15:25:19;2.55;;;1.55;;
26756;SDS011;23848;49.798;10.228;2022-08-03T15:28:09;2.25;;;1.40;;
26756;SDS011;23848;49.798;10.228;2022-08-03T15:30:37;2.88;;;1.50;;